sensor_id;sensor_type;location;lat;lon;timestamp;P1;durP1;ratioP1;P2;durP2;ratioP2
64500;SDS011;50874;24.150;-110.320;2024-01-11T00:00:58;45.28;;;4.72;;
64500;SDS011;50874;24.150;-110.320;2024-01-11T00:03:25;39.70;;;4.10;;
64500;SDS011;50874;24.150;-110.320;2024-01-11T00:05:53;42.80;;;4.82;;
64500;SDS011;50874;24.150;-110.320;2024-01-11T00:08:20;42.38;;;6.93;;
64500;SDS011;50874;24.150;-110.320;2024-01-11T00:10:46;61.08;;;8.43;;
64500;SDS011;50874;24.150;-110.320;2024-01-11T00:13:13;56.22;;;6.78;;
64500;SDS011;50874;24.150;-110.320;2024-01-11T00:15:39;39.58;;;4.20;;
64500;SDS011;50874;24.150;-110.320;2024-01-11T00:18:05;33.78;;;4.28;;
64500;SDS011;50874;24.150;-110.320;2024-01-11T00:20:32;28.85;;;3.78;;
64500;SDS011;50874;24.150;-110.320;2024-01-11T00:22:58;37.00;;;4.45;;
64500;SDS011;50874;24.150;-110.320;2024-01-11T00:25:28;37.13;;;4.32;;
64500;SDS011;50874;24.150;-110.320;2024-01-11T00:27:54;28.75;;;3.85;;
64500;SDS011;50874;24.150;-110.320;2024-01-11T00:30:20;37.90;;;3.67;;
64500;SDS011;50874;24.150;-110.320;2024-01-11T00:32:48;35.70;;;5.38;;
64500;SDS011;50874;24.150;-110.320;2024-01-11T00:35:15;25.48;;;3.28;;
64500;SDS011;50874;24.150;-110.320;2024-01-11T00:37:41;19.55;;;2.00;;
64500;SDS011;50874;24.150;-110.320;2024-01-11T00:40:08;9.45;;;1.80;;
64500;SDS011;50874;24.150;-110.320;2024-01-11T00:42:34;5.18;;;1.40;;
64500;SDS011;50874;24.150;-110.320;2024-01-11T00:45:01;14.40;;;2.10;;
64500;SDS011;50874;24.150;-110.320;2024-01-11T00:47:27;16.95;;;1.90;;
64500;SDS011;50874;24.150;-110.320;2024-01-11T00:49:54;10.65;;;1.60;;
64500;SDS011;50874;24.150;-110.320;2024-01-11T00:52:20;14.57;;;2.30;;
64500;SDS011;50874;24.150;-110.320;2024-01-11T00:54:47;10.95;;;1.73;;
64500;SDS011;50874;24.150;-110.320;2024-01-11T00:57:13;17.45;;;1.92;;
64500;SDS011;50874;24.150;-110.320;2024-01-11T00:59:40;8.27;;;1.90;;
64500;SDS011;50874;24.150;-110.320;2024-01-11T01:02:06;17.00;;;2.03;;
64500;SDS011;50874;24.150;-110.320;2024-01-11T01:04:33;34.45;;;3.35;;
64500;SDS011;50874;24.150;-110.320;2024-01-11T01:07:02;24.17;;;2.60;;
64500;SDS011;50874;24.150;-110.320;2024-01-11T01:09:29;17.60;;;2.88;;
64500;SDS011;50874;24.150;-110.320;2024-01-11T01:11:56;30.70;;;2.80;;
64500;SDS011;50874;24.150;-110.320;2024-01-11T01:14:22;24.23;;;3.28;;
64500;SDS011;50874;24.150;-110.320;2024-01-11T01:16:48;24.00;;;3.55;;
64500;SDS011;50874;24.150;-110.320;2024-01-11T01:19:15;34.92;;;3.42;;
64500;SDS011;50874;24.150;-110.320;2024-01-11T01:21:41;39.15;;;5.13;;
64500;SDS011;50874;24.150;-110.320;2024-01-11T01:24:08;26.25;;;2.95;;
64500;SDS011;50874;24.150;-110.320;2024-01-11T01:26:34;14.00;;;3.05;;
64500;SDS011;50874;24.150;-110.320;2024-01-11T01:29:01;18.23;;;2.80;;
64500;SDS011;50874;24.150;-110.320;2024-01-11T01:31:27;16.67;;;2.25;;
64500;SDS011;50874;24.150;-110.320;2024-01-11T01:33:54;19.23;;;2.90;;
64500;SDS011;50874;24.150;-110.320;2024-01-11T01:36:21;28.17;;;3.13;;
64500;SDS011;50874;24.150;-110.320;2024-01-11T01:38:47;21.42;;;3.47;;
64500;SDS011;50874;24.150;-110.320;2024-01-11T01:41:14;21.08;;;3.35;;
64500;SDS011;50874;24.150;-110.320;2024-01-11T01:43:40;18.13;;;2.80;;
64500;SDS011;50874;24.150;-110.320;2024-01-11T01:46:06;21.80;;;3.00;;
64500;SDS011;50874;24.150;-110.320;2024-01-11T01:48:33;16.40;;;2.28;;
64500;SDS011;50874;24.150;-110.320;2024-01-11T01:51:01;18.92;;;1.88;;
64500;SDS011;50874;24.150;-110.320;2024-01-11T01:53:28;19.02;;;3.85;;
64500;SDS011;50874;24.150;-110.320;2024-01-11T01:55:55;23.88;;;2.88;;
64500;SDS011;50874;24.150;-110.320;2024-01-11T01:58:22;37.90;;;4.57;;
64500;SDS011;50874;24.150;-110.320;2024-01-11T02:00:49;26.60;;;3.35;;
64500;SDS011;50874;24.150;-110.320;2024-01-11T02:03:17;24.38;;;4.00;;
64500;SDS011;50874;24.150;-110.320;2024-01-11T02:05:43;20.35;;;2.92;;
64500;SDS011;50874;24.150;-110.320;2024-01-11T02:08:12;30.23;;;4.30;;
64500;SDS011;50874;24.150;-110.320;2024-01-11T02:10:41;27.38;;;2.95;;
64500;SDS011;50874;24.150;-110.320;2024-01-11T02:13:08;20.33;;;2.35;;
64500;SDS011;50874;24.150;-110.320;2024-01-11T02:15:35;16.98;;;1.70;;
64500;SDS011;50874;24.150;-110.320;2024-01-11T02:18:02;5.78;;;1.88;;
64500;SDS011;50874;24.150;-110.320;2024-01-11T02:20:29;15.50;;;2.13;;
64500;SDS011;50874;24.150;-110.320;2024-01-11T02:22:56;29.10;;;2.80;;
64500;SDS011;50874;24.150;-110.320;2024-01-11T02:25:29;16.13;;;2.22;;
64500;SDS011;50874;24.150;-110.320;2024-01-11T02:27:55;17.95;;;2.25;;
64500;SDS011;50874;24.150;-110.320;2024-01-11T02:30:21;21.85;;;4.03;;
64500;SDS011;50874;24.150;-110.320;2024-01-11T02:32:48;26.30;;;4.75;;
64500;SDS011;50874;24.150;-110.320;2024-01-11T02:35:15;25.60;;;3.40;;
64500;SDS011;50874;24.150;-110.320;2024-01-11T02:37:42;22.23;;;3.85;;
64500;SDS011;50874;24.150;-110.320;2024-01-11T02:40:13;22.35;;;2.55;;
64500;SDS011;50874;24.150;-110.320;2024-01-11T02:42:40;29.13;;;4.47;;
64500;SDS011;50874;24.150;-110.320;2024-01-11T02:45:07;21.35;;;2.28;;
64500;SDS011;50874;24.150;-110.320;2024-01-11T02:47:35;19.85;;;3.05;;
64500;SDS011;50874;24.150;-110.320;2024-01-11T02:50:01;23.95;;;3.05;;
64500;SDS011;50874;24.150;-110.320;2024-01-11T02:52:28;16.63;;;2.38;;
64500;SDS011;50874;24.150;-110.320;2024-01-11T02:54:58;28.42;;;3.45;;
64500;SDS011;50874;24.150;-110.320;2024-01-11T02:57:24;13.70;;;2.25;;
64500;SDS011;50874;24.150;-110.320;2024-01-11T02:59:51;12.77;;;2.17;;
64500;SDS011;50874;24.150;-110.320;2024-01-11T03:02:17;25.63;;;2.50;;
64500;SDS011;50874;24.150;-110.320;2024-01-11T03:04:47;10.50;;;1.73;;
64500;SDS011;50874;24.150;-110.320;2024-01-11T03:07:13;11.15;;;1.70;;
64500;SDS011;50874;24.150;-110.320;2024-01-11T03:09:43;11.65;;;1.70;;
64500;SDS011;50874;24.150;-110.320;2024-01-11T03:12:09;16.42;;;1.98;;
64500;SDS011;50874;24.150;-110.320;2024-01-11T03:14:36;12.80;;;2.08;;
64500;SDS011;50874;24.150;-110.320;2024-01-11T03:17:05;10.07;;;1.23;;
64500;SDS011;50874;24.150;-110.320;2024-01-11T03:19:31;9.02;;;1.55;;
64500;SDS011;50874;24.150;-110.320;2024-01-11T03:21:58;7.07;;;1.05;;
64500;SDS011;50874;24.150;-110.320;2024-01-11T03:24:28;9.40;;;1.40;;
64500;SDS011;50874;24.150;-110.320;2024-01-11T03:26:55;10.38;;;1.83;;
64500;SDS011;50874;24.150;-110.320;2024-01-11T03:29:21;7.72;;;1.58;;
64500;SDS011;50874;24.150;-110.320;2024-01-11T03:31:47;3.33;;;1.48;;
64500;SDS011;50874;24.150;-110.320;2024-01-11T03:34:14;11.07;;;1.70;;
64500;SDS011;50874;24.150;-110.320;2024-01-11T03:36:40;13.55;;;1.88;;
64500;SDS011;50874;24.150;-110.320;2024-01-11T03:39:07;13.27;;;2.17;;
64500;SDS011;50874;24.150;-110.320;2024-01-11T03:41:33;12.30;;;3.05;;
64500;SDS011;50874;24.150;-110.320;2024-01-11T03:44:00;17.63;;;2.10;;
64500;SDS011;50874;24.150;-110.320;2024-01-11T03:46:26;14.43;;;2.92;;
64500;SDS011;50874;24.150;-110.320;2024-01-11T03:48:52;15.07;;;1.58;;
64500;SDS011;50874;24.150;-110.320;2024-01-11T03:51:21;11.10;;;1.48;;
64500;SDS011;50874;24.150;-110.320;2024-01-11T03:53:47;16.48;;;2.30;;
64500;SDS011;50874;24.150;-110.320;2024-01-11T03:56:14;6.03;;;1.50;;
64500;SDS011;50874;24.150;-110.320;2024-01-11T03:58:40;7.57;;;1.17;;
64500;SDS011;50874;24.150;-110.320;2024-01-11T04:01:10;12.48;;;1.80;;
64500;SDS011;50874;24.150;-110.320;2024-01-11T04:03:36;8.68;;;1.70;;
64500;SDS011;50874;24.150;-110.320;2024-01-11T04:06:03;10.90;;;1.73;;
64500;SDS011;50874;24.150;-110.320;2024-01-11T04:08:30;8.13;;;1.40;;
64500;SDS011;50874;24.150;-110.320;2024-01-11T04:10:56;12.93;;;2.15;;
64500;SDS011;50874;24.150;-110.320;2024-01-11T04:13:23;13.05;;;2.85;;
64500;SDS011;50874;24.150;-110.320;2024-01-11T04:15:50;10.02;;;1.50;;
64500;SDS011;50874;24.150;-110.320;2024-01-11T04:18:16;6.50;;;1.67;;
64500;SDS011;50874;24.150;-110.320;2024-01-11T04:20:42;10.93;;;1.67;;
64500;SDS011;50874;24.150;-110.320;2024-01-11T04:23:09;6.93;;;1.40;;
64500;SDS011;50874;24.150;-110.320;2024-01-11T04:25:35;8.52;;;1.40;;
64500;SDS011;50874;24.150;-110.320;2024-01-11T04:28:02;7.20;;;1.05;;
64500;SDS011;50874;24.150;-110.320;2024-01-11T04:30:28;24.42;;;2.83;;
64500;SDS011;50874;24.150;-110.320;2024-01-11T04:32:55;14.32;;;1.55;;
64500;SDS011;50874;24.150;-110.320;2024-01-11T04:35:21;12.15;;;1.48;;
64500;SDS011;50874;24.150;-110.320;2024-01-11T04:37:48;9.50;;;1.70;;
64500;SDS011;50874;24.150;-110.320;2024-01-11T04:40:14;4.88;;;1.30;;
64500;SDS011;50874;24.150;-110.320;2024-01-11T04:42:41;7.88;;;1.67;;
64500;SDS011;50874;24.150;-110.320;2024-01-11T04:45:07;17.52;;;1.75;;
64500;SDS011;50874;24.150;-110.320;2024-01-11T04:47:34;6.75;;;1.10;;
64500;SDS011;50874;24.150;-110.320;2024-01-11T04:50:00;12.52;;;1.75;;
64500;SDS011;50874;24.150;-110.320;2024-01-11T04:52:26;35.17;;;3.17;;
64500;SDS011;50874;24.150;-110.320;2024-01-11T04:54:53;11.50;;;1.95;;
64500;SDS011;50874;24.150;-110.320;2024-01-11T04:57:19;7.63;;;1.85;;
64500;SDS011;50874;24.150;-110.320;2024-01-11T04:59:46;45.30;;;4.22;;
64500;SDS011;50874;24.150;-110.320;2024-01-11T05:02:12;20.52;;;2.42;;
64500;SDS011;50874;24.150;-110.320;2024-01-11T05:04:39;5.57;;;1.45;;
64500;SDS011;50874;24.150;-110.320;2024-01-11T05:07:05;20.25;;;1.33;;
64500;SDS011;50874;24.150;-110.320;2024-01-11T05:09:31;8.32;;;1.00;;
64500;SDS011;50874;24.150;-110.320;2024-01-11T05:11:58;5.90;;;1.20;;
64500;SDS011;50874;24.150;-110.320;2024-01-11T05:14:24;5.18;;;1.20;;
64500;SDS011;50874;24.150;-110.320;2024-01-11T05:16:51;4.68;;;1.10;;
64500;SDS011;50874;24.150;-110.320;2024-01-11T05:19:17;12.13;;;0.98;;
64500;SDS011;50874;24.150;-110.320;2024-01-11T05:21:44;9.45;;;0.98;;
64500;SDS011;50874;24.150;-110.320;2024-01-11T05:24:10;13.70;;;1.50;;
64500;SDS011;50874;24.150;-110.320;2024-01-11T05:26:37;10.18;;;1.90;;
64500;SDS011;50874;24.150;-110.320;2024-01-11T05:29:03;6.40;;;1.15;;
64500;SDS011;50874;24.150;-110.320;2024-01-11T05:31:30;5.45;;;1.13;;
64500;SDS011;50874;24.150;-110.320;2024-01-11T05:33:56;3.95;;;1.10;;
64500;SDS011;50874;24.150;-110.320;2024-01-11T05:36:23;10.18;;;1.33;;
64500;SDS011;50874;24.150;-110.320;2024-01-11T05:38:49;10.05;;;2.15;;
64500;SDS011;50874;24.150;-110.320;2024-01-11T05:41:16;11.95;;;2.42;;
64500;SDS011;50874;24.150;-110.320;2024-01-11T05:43:42;13.68;;;1.55;;
64500;SDS011;50874;24.150;-110.320;2024-01-11T05:46:09;5.53;;;1.10;;
64500;SDS011;50874;24.150;-110.320;2024-01-11T05:48:36;4.80;;;1.27;;
64500;SDS011;50874;24.150;-110.320;2024-01-11T05:51:02;5.10;;;1.30;;
64500;SDS011;50874;24.150;-110.320;2024-01-11T05:53:29;8.43;;;1.38;;
64500;SDS011;50874;24.150;-110.320;2024-01-11T05:55:58;22.33;;;2.35;;
64500;SDS011;50874;24.150;-110.320;2024-01-11T05:58:25;13.20;;;2.08;;
64500;SDS011;50874;24.150;-110.320;2024-01-11T06:00:51;13.70;;;1.80;;
64500;SDS011;50874;24.150;-110.320;2024-01-11T06:03:17;19.95;;;1.98;;
64500;SDS011;50874;24.150;-110.320;2024-01-11T06:05:44;6.18;;;1.10;;
64500;SDS011;50874;24.150;-110.320;2024-01-11T06:08:11;11.18;;;1.40;;
64500;SDS011;50874;24.150;-110.320;2024-01-11T06:10:38;9.27;;;1.58;;
64500;SDS011;50874;24.150;-110.320;2024-01-11T06:13:05;9.02;;;1.30;;
64500;SDS011;50874;24.150;-110.320;2024-01-11T06:15:31;24.48;;;2.22;;
64500;SDS011;50874;24.150;-110.320;2024-01-11T06:17:58;17.15;;;2.63;;
64500;SDS011;50874;24.150;-110.320;2024-01-11T06:20:25;18.83;;;2.03;;
64500;SDS011;50874;24.150;-110.320;2024-01-11T06:22:51;17.38;;;1.73;;
64500;SDS011;50874;24.150;-110.320;2024-01-11T06:25:18;14.50;;;2.03;;
64500;SDS011;50874;24.150;-110.320;2024-01-11T06:27:45;19.02;;;2.00;;
64500;SDS011;50874;24.150;-110.320;2024-01-11T06:30:12;11.32;;;2.05;;
64500;SDS011;50874;24.150;-110.320;2024-01-11T06:32:39;12.88;;;2.30;;
64500;SDS011;50874;24.150;-110.320;2024-01-11T06:35:05;18.17;;;2.13;;
64500;SDS011;50874;24.150;-110.320;2024-01-11T06:37:32;15.73;;;2.42;;
64500;SDS011;50874;24.150;-110.320;2024-01-11T06:39:59;12.93;;;2.03;;
64500;SDS011;50874;24.150;-110.320;2024-01-11T06:42:25;19.23;;;2.63;;
64500;SDS011;50874;24.150;-110.320;2024-01-11T06:44:51;12.25;;;2.13;;
64500;SDS011;50874;24.150;-110.320;2024-01-11T06:47:18;13.38;;;2.20;;
64500;SDS011;50874;24.150;-110.320;2024-01-11T06:49:45;19.13;;;2.80;;
64500;SDS011;50874;24.150;-110.320;2024-01-11T06:52:11;14.57;;;2.83;;
64500;SDS011;50874;24.150;-110.320;2024-01-11T06:54:39;12.50;;;1.40;;
64500;SDS011;50874;24.150;-110.320;2024-01-11T06:57:05;8.80;;;1.40;;
64500;SDS011;50874;24.150;-110.320;2024-01-11T06:59:32;12.07;;;1.52;;
64500;SDS011;50874;24.150;-110.320;2024-01-11T07:01:58;8.98;;;1.83;;
64500;SDS011;50874;24.150;-110.320;2024-01-11T07:04:25;7.45;;;1.58;;
64500;SDS011;50874;24.150;-110.320;2024-01-11T07:06:51;7.80;;;1.13;;
64500;SDS011;50874;24.150;-110.320;2024-01-11T07:09:20;12.45;;;1.63;;
64500;SDS011;50874;24.150;-110.320;2024-01-11T07:11:47;11.70;;;1.10;;
64500;SDS011;50874;24.150;-110.320;2024-01-11T07:14:13;5.55;;;1.10;;
64500;SDS011;50874;24.150;-110.320;2024-01-11T07:16:40;13.02;;;2.05;;
64500;SDS011;50874;24.150;-110.320;2024-01-11T07:19:06;5.55;;;1.20;;
64500;SDS011;50874;24.150;-110.320;2024-01-11T07:21:32;5.45;;;1.38;;
64500;SDS011;50874;24.150;-110.320;2024-01-11T07:23:59;8.23;;;1.15;;
64500;SDS011;50874;24.150;-110.320;2024-01-11T07:26:25;5.65;;;1.20;;
64500;SDS011;50874;24.150;-110.320;2024-01-11T07:28:52;9.32;;;1.60;;
64500;SDS011;50874;24.150;-110.320;2024-01-11T07:31:22;3.85;;;1.10;;
64500;SDS011;50874;24.150;-110.320;2024-01-11T07:33:49;12.75;;;1.75;;
64500;SDS011;50874;24.150;-110.320;2024-01-11T07:36:15;7.45;;;1.60;;
64500;SDS011;50874;24.150;-110.320;2024-01-11T07:38:42;8.73;;;1.60;;
64500;SDS011;50874;24.150;-110.320;2024-01-11T07:41:08;17.65;;;1.50;;
64500;SDS011;50874;24.150;-110.320;2024-01-11T07:43:35;7.18;;;1.63;;
64500;SDS011;50874;24.150;-110.320;2024-01-11T07:46:01;10.60;;;1.58;;
64500;SDS011;50874;24.150;-110.320;2024-01-11T07:48:29;8.57;;;1.30;;
64500;SDS011;50874;24.150;-110.320;2024-01-11T07:50:55;27.77;;;2.13;;
64500;SDS011;50874;24.150;-110.320;2024-01-11T07:53:23;9.02;;;1.27;;
64500;SDS011;50874;24.150;-110.320;2024-01-11T07:55:49;8.95;;;1.38;;
64500;SDS011;50874;24.150;-110.320;2024-01-11T07:58:16;6.68;;;1.05;;
64500;SDS011;50874;24.150;-110.320;2024-01-11T08:00:42;5.63;;;1.15;;
64500;SDS011;50874;24.150;-110.320;2024-01-11T08:03:09;6.85;;;1.10;;
64500;SDS011;50874;24.150;-110.320;2024-01-11T08:05:35;6.00;;;0.93;;
64500;SDS011;50874;24.150;-110.320;2024-01-11T08:08:02;9.40;;;0.93;;
64500;SDS011;50874;24.150;-110.320;2024-01-11T08:10:29;10.32;;;1.63;;
64500;SDS011;50874;24.150;-110.320;2024-01-11T08:12:59;5.68;;;1.15;;
64500;SDS011;50874;24.150;-110.320;2024-01-11T08:15:26;5.72;;;0.90;;
64500;SDS011;50874;24.150;-110.320;2024-01-11T08:17:52;5.22;;;1.05;;
64500;SDS011;50874;24.150;-110.320;2024-01-11T08:20:19;8.18;;;1.00;;
64500;SDS011;50874;24.150;-110.320;2024-01-11T08:22:45;6.68;;;0.90;;
64500;SDS011;50874;24.150;-110.320;2024-01-11T08:25:12;9.88;;;0.90;;
64500;SDS011;50874;24.150;-110.320;2024-01-11T08:27:39;10.00;;;1.35;;
64500;SDS011;50874;24.150;-110.320;2024-01-11T08:30:06;5.88;;;0.90;;
64500;SDS011;50874;24.150;-110.320;2024-01-11T08:32:33;4.72;;;1.08;;
64500;SDS011;50874;24.150;-110.320;2024-01-11T08:35:05;4.95;;;0.98;;
64500;SDS011;50874;24.150;-110.320;2024-01-11T08:37:32;5.70;;;0.88;;
64500;SDS011;50874;24.150;-110.320;2024-01-11T08:39:58;7.32;;;1.20;;
64500;SDS011;50874;24.150;-110.320;2024-01-11T08:42:25;6.43;;;0.95;;
64500;SDS011;50874;24.150;-110.320;2024-01-11T08:44:51;6.78;;;0.90;;
64500;SDS011;50874;24.150;-110.320;2024-01-11T08:47:18;4.80;;;1.17;;
64500;SDS011;50874;24.150;-110.320;2024-01-11T08:49:44;1.55;;;0.73;;
64500;SDS011;50874;24.150;-110.320;2024-01-11T08:52:10;6.97;;;0.85;;
64500;SDS011;50874;24.150;-110.320;2024-01-11T08:54:37;5.32;;;0.80;;
64500;SDS011;50874;24.150;-110.320;2024-01-11T08:57:03;4.85;;;1.08;;
64500;SDS011;50874;24.150;-110.320;2024-01-11T08:59:30;4.85;;;1.23;;
64500;SDS011;50874;24.150;-110.320;2024-01-11T09:01:56;6.15;;;1.00;;
64500;SDS011;50874;24.150;-110.320;2024-01-11T09:04:23;5.45;;;1.00;;
64500;SDS011;50874;24.150;-110.320;2024-01-11T09:06:49;5.25;;;1.00;;
64500;SDS011;50874;24.150;-110.320;2024-01-11T09:09:15;5.07;;;1.05;;
64500;SDS011;50874;24.150;-110.320;2024-01-11T09:11:42;7.05;;;1.02;;
64500;SDS011;50874;24.150;-110.320;2024-01-11T09:14:08;3.40;;;0.63;;
64500;SDS011;50874;24.150;-110.320;2024-01-11T09:16:36;4.55;;;1.15;;
64500;SDS011;50874;24.150;-110.320;2024-01-11T09:19:04;3.65;;;0.90;;
64500;SDS011;50874;24.150;-110.320;2024-01-11T09:21:31;2.63;;;0.85;;
64500;SDS011;50874;24.150;-110.320;2024-01-11T09:23:58;7.30;;;1.13;;
64500;SDS011;50874;24.150;-110.320;2024-01-11T09:26:24;2.97;;;0.98;;
64500;SDS011;50874;24.150;-110.320;2024-01-11T09:28:51;7.38;;;0.73;;
64500;SDS011;50874;24.150;-110.320;2024-01-11T09:31:17;9.15;;;1.10;;
64500;SDS011;50874;24.150;-110.320;2024-01-11T09:33:43;6.15;;;1.25;;
64500;SDS011;50874;24.150;-110.320;2024-01-11T09:36:11;4.25;;;0.90;;
64500;SDS011;50874;24.150;-110.320;2024-01-11T09:38:38;3.85;;;1.05;;
64500;SDS011;50874;24.150;-110.320;2024-01-11T09:41:06;2.22;;;1.15;;
64500;SDS011;50874;24.150;-110.320;2024-01-11T09:43:35;4.72;;;1.30;;
64500;SDS011;50874;24.150;-110.320;2024-01-11T09:46:05;4.90;;;1.23;;
64500;SDS011;50874;24.150;-110.320;2024-01-11T09:48:35;4.57;;;1.00;;
64500;SDS011;50874;24.150;-110.320;2024-01-11T09:51:09;6.25;;;0.98;;
64500;SDS011;50874;24.150;-110.320;2024-01-11T09:53:39;3.63;;;0.80;;
64500;SDS011;50874;24.150;-110.320;2024-01-11T09:56:08;7.15;;;0.82;;
64500;SDS011;50874;24.150;-110.320;2024-01-11T09:58:35;3.97;;;0.90;;
64500;SDS011;50874;24.150;-110.320;2024-01-11T10:01:02;2.83;;;0.80;;
64500;SDS011;50874;24.150;-110.320;2024-01-11T10:03:31;2.60;;;0.95;;
64500;SDS011;50874;24.150;-110.320;2024-01-11T10:05:58;5.07;;;0.57;;
64500;SDS011;50874;24.150;-110.320;2024-01-11T10:08:26;7.80;;;0.93;;
64500;SDS011;50874;24.150;-110.320;2024-01-11T10:10:55;4.57;;;0.63;;
64500;SDS011;50874;24.150;-110.320;2024-01-11T10:13:28;10.32;;;0.98;;
64500;SDS011;50874;24.150;-110.320;2024-01-11T10:16:13;4.68;;;1.15;;
64500;SDS011;50874;24.150;-110.320;2024-01-11T10:18:41;5.90;;;1.08;;
64500;SDS011;50874;24.150;-110.320;2024-01-11T10:21:07;2.05;;;0.52;;
64500;SDS011;50874;24.150;-110.320;2024-01-11T10:23:37;6.57;;;1.00;;
64500;SDS011;50874;24.150;-110.320;2024-01-11T10:26:04;11.48;;;1.10;;
64500;SDS011;50874;24.150;-110.320;2024-01-11T10:28:32;4.88;;;0.98;;
64500;SDS011;50874;24.150;-110.320;2024-01-11T10:31:05;2.58;;;1.08;;
64500;SDS011;50874;24.150;-110.320;2024-01-11T10:33:33;3.10;;;0.90;;
64500;SDS011;50874;24.150;-110.320;2024-01-11T10:36:00;5.90;;;0.88;;
64500;SDS011;50874;24.150;-110.320;2024-01-11T10:38:27;6.13;;;0.98;;
64500;SDS011;50874;24.150;-110.320;2024-01-11T10:40:56;7.53;;;1.45;;
64500;SDS011;50874;24.150;-110.320;2024-01-11T10:43:28;5.75;;;0.80;;
64500;SDS011;50874;24.150;-110.320;2024-01-11T10:46:00;6.10;;;1.23;;
64500;SDS011;50874;24.150;-110.320;2024-01-11T10:48:33;4.75;;;0.57;;
64500;SDS011;50874;24.150;-110.320;2024-01-11T10:51:08;6.13;;;0.80;;
64500;SDS011;50874;24.150;-110.320;2024-01-11T10:53:44;4.28;;;0.70;;
64500;SDS011;50874;24.150;-110.320;2024-01-11T10:56:12;4.38;;;0.90;;
64500;SDS011;50874;24.150;-110.320;2024-01-11T10:58:44;3.20;;;0.70;;
64500;SDS011;50874;24.150;-110.320;2024-01-11T11:01:12;7.30;;;1.23;;
64500;SDS011;50874;24.150;-110.320;2024-01-11T11:03:39;3.70;;;0.98;;
64500;SDS011;50874;24.150;-110.320;2024-01-11T11:06:09;4.15;;;0.60;;
64500;SDS011;50874;24.150;-110.320;2024-01-11T11:08:37;4.70;;;1.00;;
64500;SDS011;50874;24.150;-110.320;2024-01-11T11:11:05;4.25;;;0.98;;
64500;SDS011;50874;24.150;-110.320;2024-01-11T11:13:33;10.35;;;2.00;;
64500;SDS011;50874;24.150;-110.320;2024-01-11T11:16:03;4.80;;;0.90;;
64500;SDS011;50874;24.150;-110.320;2024-01-11T11:18:29;6.70;;;0.93;;
64500;SDS011;50874;24.150;-110.320;2024-01-11T11:20:57;7.15;;;1.17;;
64500;SDS011;50874;24.150;-110.320;2024-01-11T11:23:24;6.00;;;0.63;;
64500;SDS011;50874;24.150;-110.320;2024-01-11T11:25:51;16.48;;;1.95;;
64500;SDS011;50874;24.150;-110.320;2024-01-11T11:28:23;6.70;;;1.00;;
64500;SDS011;50874;24.150;-110.320;2024-01-11T11:30:52;3.65;;;0.93;;
64500;SDS011;50874;24.150;-110.320;2024-01-11T11:33:19;4.70;;;1.00;;
64500;SDS011;50874;24.150;-110.320;2024-01-11T11:35:49;8.30;;;0.90;;
64500;SDS011;50874;24.150;-110.320;2024-01-11T11:38:22;10.50;;;1.50;;
64500;SDS011;50874;24.150;-110.320;2024-01-11T11:40:51;10.32;;;1.13;;
64500;SDS011;50874;24.150;-110.320;2024-01-11T11:43:18;4.40;;;0.70;;
64500;SDS011;50874;24.150;-110.320;2024-01-11T11:45:49;8.63;;;1.00;;
64500;SDS011;50874;24.150;-110.320;2024-01-11T11:53:34;16.25;;;1.80;;
64500;SDS011;50874;24.150;-110.320;2024-01-11T11:56:04;2.45;;;0.70;;
64500;SDS011;50874;24.150;-110.320;2024-01-11T11:58:32;7.70;;;0.93;;
64500;SDS011;50874;24.150;-110.320;2024-01-11T12:01:00;5.32;;;1.45;;
64500;SDS011;50874;24.150;-110.320;2024-01-11T12:03:28;7.95;;;0.88;;
64500;SDS011;50874;24.150;-110.320;2024-01-11T12:06:06;4.95;;;0.93;;
64500;SDS011;50874;24.150;-110.320;2024-01-11T12:08:35;5.80;;;0.75;;
64500;SDS011;50874;24.150;-110.320;2024-01-11T12:11:02;6.05;;;1.38;;
64500;SDS011;50874;24.150;-110.320;2024-01-11T12:13:30;6.47;;;1.25;;
64500;SDS011;50874;24.150;-110.320;2024-01-11T12:15:57;7.88;;;1.00;;
64500;SDS011;50874;24.150;-110.320;2024-01-11T12:18:24;3.83;;;0.70;;
64500;SDS011;50874;24.150;-110.320;2024-01-11T12:20:51;4.30;;;0.80;;
64500;SDS011;50874;24.150;-110.320;2024-01-11T12:23:20;3.58;;;0.75;;
64500;SDS011;50874;24.150;-110.320;2024-01-11T12:25:47;3.30;;;0.90;;
64500;SDS011;50874;24.150;-110.320;2024-01-11T12:28:14;8.20;;;0.95;;
64500;SDS011;50874;24.150;-110.320;2024-01-11T12:30:40;6.80;;;1.05;;
64500;SDS011;50874;24.150;-110.320;2024-01-11T12:33:07;10.90;;;1.48;;
64500;SDS011;50874;24.150;-110.320;2024-01-11T12:35:35;8.43;;;1.30;;
64500;SDS011;50874;24.150;-110.320;2024-01-11T12:38:05;6.03;;;1.05;;
64500;SDS011;50874;24.150;-110.320;2024-01-11T12:40:35;2.90;;;1.33;;
64500;SDS011;50874;24.150;-110.320;2024-01-11T12:43:07;7.50;;;1.20;;
64500;SDS011;50874;24.150;-110.320;2024-01-11T12:45:34;9.23;;;1.20;;
64500;SDS011;50874;24.150;-110.320;2024-01-11T12:48:02;5.93;;;1.20;;
64500;SDS011;50874;24.150;-110.320;2024-01-11T12:50:29;10.27;;;1.73;;
64500;SDS011;50874;24.150;-110.320;2024-01-11T12:53:09;10.35;;;1.83;;
64500;SDS011;50874;24.150;-110.320;2024-01-11T12:56:04;19.48;;;2.45;;
64500;SDS011;50874;24.150;-110.320;2024-01-11T12:58:38;14.85;;;2.53;;
64500;SDS011;50874;24.150;-110.320;2024-01-11T13:01:08;5.70;;;1.83;;
64500;SDS011;50874;24.150;-110.320;2024-01-11T13:03:37;13.63;;;2.05;;
64500;SDS011;50874;24.150;-110.320;2024-01-11T13:06:04;19.20;;;2.30;;
64500;SDS011;50874;24.150;-110.320;2024-01-11T13:08:31;18.95;;;2.13;;
64500;SDS011;50874;24.150;-110.320;2024-01-11T13:10:59;23.23;;;2.05;;
64500;SDS011;50874;24.150;-110.320;2024-01-11T13:13:26;16.15;;;2.97;;
64500;SDS011;50874;24.150;-110.320;2024-01-11T13:15:53;20.05;;;2.28;;
64500;SDS011;50874;24.150;-110.320;2024-01-11T13:18:20;12.23;;;2.38;;
64500;SDS011;50874;24.150;-110.320;2024-01-11T13:20:46;20.85;;;3.20;;
64500;SDS011;50874;24.150;-110.320;2024-01-11T13:25:43;6.28;;;1.73;;
64500;SDS011;50874;24.150;-110.320;2024-01-11T13:28:10;10.27;;;2.22;;
64500;SDS011;50874;24.150;-110.320;2024-01-11T13:30:40;31.00;;;3.47;;
64500;SDS011;50874;24.150;-110.320;2024-01-11T13:33:08;23.48;;;2.58;;
64500;SDS011;50874;24.150;-110.320;2024-01-11T13:35:38;11.38;;;1.63;;
64500;SDS011;50874;24.150;-110.320;2024-01-11T13:38:06;10.45;;;1.90;;
64500;SDS011;50874;24.150;-110.320;2024-01-11T13:40:33;17.17;;;2.75;;
64500;SDS011;50874;24.150;-110.320;2024-01-11T13:42:59;28.65;;;3.83;;
64500;SDS011;50874;24.150;-110.320;2024-01-11T13:45:28;17.95;;;2.03;;
64500;SDS011;50874;24.150;-110.320;2024-01-11T13:47:58;27.95;;;2.83;;
64500;SDS011;50874;24.150;-110.320;2024-01-11T13:50:25;19.23;;;2.83;;
64500;SDS011;50874;24.150;-110.320;2024-01-11T13:52:52;60.55;;;5.18;;
64500;SDS011;50874;24.150;-110.320;2024-01-11T13:55:19;191.85;;;18.40;;
64500;SDS011;50874;24.150;-110.320;2024-01-11T13:57:49;193.73;;;17.48;;
64500;SDS011;50874;24.150;-110.320;2024-01-11T14:00:16;78.95;;;8.02;;
64500;SDS011;50874;24.150;-110.320;2024-01-11T14:02:46;69.30;;;6.57;;
64500;SDS011;50874;24.150;-110.320;2024-01-11T14:05:13;27.35;;;3.17;;
64500;SDS011;50874;24.150;-110.320;2024-01-11T14:07:41;35.05;;;2.90;;
64500;SDS011;50874;24.150;-110.320;2024-01-11T14:10:10;23.50;;;3.00;;